This is the latest recevied weather packets stored in our database for station/object PE1RXF-13. If no packets are shown the sender has not sent any weather packets the latest 10 day(s).
| Time | Temp. | Humidity | Pressure | Rain* | Wind** | Luminosity | Snow |
|---|---|---|---|---|---|---|---|
| 1777794254 | 20° C | 87% | 1010.5 hPa | 0 mm | - | 152 W/m² | - |
| 1777792456 | 19.44° C | 88% | 1010.4 hPa | 0 mm | - | 76 W/m² | - |
| 1777790654 | 17.22° C | 99% | 1010.5 hPa | 0 mm | - | 98 W/m² | - |
| 1777788854 | 13.89° C | 99% | 1010.5 hPa | 0 mm | - | 46 W/m² | - |
| 1777787055 | 12.78° C | 99% | 1010.6 hPa | 0 mm | - | 22 W/m² | - |
| 1777783456 | 11.67° C | 99% | 1010.7 hPa | 0 mm | - | 7 W/m² | - |
| 1777783454 | 11.67° C | 99% | 1010.7 hPa | 0 mm | - | 7 W/m² | - |
| 1777776255 | 11.67° C | 99% | 1011.6 hPa | 0 mm | - | 0 W/m² | - |
| 1777776254 | 11.67° C | 99% | 1011.6 hPa | 0 mm | - | 0 W/m² | - |
| 1777774456 | 12.22° C | 99% | 1011.3 hPa | 0 mm | - | 0 W/m² | - |
| 1777772655 | 12.22° C | 99% | 1011.4 hPa | 0 mm | - | 0 W/m² | - |
| 1777770854 | 11.67° C | 99% | 1011.9 hPa | 0 mm | - | 0 W/m² | - |
| 1777767254 | 12.78° C | 99% | 1012.6 hPa | 0 mm | - | 0 W/m² | - |
| 1777765455 | 12.22° C | 99% | 1012.4 hPa | 0 mm | - | 0 W/m² | - |
| 1777763657 | 12.22° C | 99% | 1013.1 hPa | 0 mm | - | 0 W/m² | - |
| 1777761854 | 12.78° C | 99% | 1013.8 hPa | 0 mm | - | 0 W/m² | - |
| 1777756454 | 12.22° C | 99% | 1014 hPa | 0 mm | - | 0 W/m² | - |
| 1777754654 | 12.78° C | 99% | 1014.1 hPa | 0 mm | - | 0 W/m² | - |
| 1777752855 | 13.89° C | 99% | 1014.3 hPa | 0 mm | - | 0 W/m² | - |
| 1777751056 | 15° C | 99% | 1014.1 hPa | 0 mm | - | 0 W/m² | - |
| 1777749254 | 16.11° C | 99% | 1013.8 hPa | 0 mm | - | 0 W/m² | - |
| 1777747454 | 17.78° C | 92% | 1013.7 hPa | 0 mm | - | 7 W/m² | - |
| 1777745656 | 19.44° C | 70% | 1013.6 hPa | 0 mm | - | 16 W/m² | - |
| 1777742054 | 23.89° C | 45% | 1013.9 hPa | 0 mm | - | 66 W/m² | - |
| 1777740254 | 23.89° C | 48% | 1014.2 hPa | 0 mm | - | 83 W/m² | - |
* Rain latest hour (hover to see other rain measurements)
** Current wind speed in m/s (hover to see current wind gust speed)